Time;durP1;ratioP1;P1;durP2;ratioP2;P2;SDS_P1;SDS_P2;PMS_P1;PMS_P2;Temp;Humidity;BMP_temperature;BMP_pressure;BME280_temperature;BME280_humidity;BME280_pressure;Samples;Min_cycle;Max_cycle;Signal;HPM_P1;HPM_P2
2022/08/19 04:31:35;;;;;;;16.62;11.88;;;;;;;23.16;69.10;99875.53;5604415;31;33760;-90
2022/08/19 04:34:38;;;;;;;16.27;11.75;;;;;;;22.72;70.48;99864.06;5617174;26;34112;-90
2022/08/19 04:38:00;;;;;;;13.98;10.75;;;;;;;22.82;69.82;99866.59;5616094;26;33928;-90
2022/08/19 04:44:25;;;;;;;12.07;10.48;;;;;;;23.20;68.78;99873.34;5589744;31;32870;-90
2022/08/19 04:47:28;;;;;;;12.60;10.35;;;;;;;23.23;68.34;99879.25;5589566;31;33762;-90
2022/08/19 04:50:57;;;;;;;11.85;10.50;;;;;;;23.33;68.63;99886.37;5589647;31;32638;-90
2022/08/19 04:54:01;;;;;;;15.05;10.52;;;;;;;23.46;67.92;99881.25;5604046;31;33980;-92
2022/08/19 04:57:08;;;;;;;14.35;11.10;;;;;;;23.52;67.54;99880.56;5603844;31;34860;-92
2022/08/19 05:00:12;;;;;;;15.38;11.23;;;;;;;23.45;66.22;99879.59;5604272;31;33796;-91
2022/08/19 05:03:16;;;;;;;14.23;10.98;;;;;;;23.48;66.17;99876.50;5603667;31;34314;-90
2022/08/19 05:06:21;;;;;;;12.30;10.10;;;;;;;23.59;66.44;99874.47;5604101;31;34392;-90
2022/08/19 05:09:24;;;;;;;19.42;10.63;;;;;;;23.77;65.54;99866.94;5603361;31;33725;-89
2022/08/19 05:12:28;;;;;;;13.27;10.57;;;;;;;23.85;65.04;99874.19;5605539;31;33819;-90
2022/08/19 05:15:31;;;;;;;13.38;9.90;;;;;;;23.95;64.01;99877.50;5606315;31;34218;-90
2022/08/19 05:25:19;;;;;;;15.40;10.73;;;;;;;24.42;63.05;99874.94;5603783;31;33694;-89
2022/08/19 05:28:22;;;;;;;16.70;10.77;;;;;;;24.63;63.62;99884.25;5592315;31;33767;-90
2022/08/19 05:31:25;;;;;;;11.25;9.80;;;;;;;24.79;62.32;99882.47;5589519;31;33900;-89
2022/08/19 05:34:28;;;;;;;16.45;10.13;;;;;;;24.92;62.31;99876.44;5589303;31;33810;-89
2022/08/19 05:37:30;;;;;;;14.87;10.20;;;;;;;25.23;61.81;99867.31;5588295;31;33763;-89
2022/08/19 05:40:38;;;;;;;12.20;10.32;;;;;;;25.42;61.34;99871.37;5589008;31;33909;-89
2022/08/19 05:43:41;;;;;;;13.85;10.27;;;;;;;25.71;59.19;99877.88;5572886;31;32415;-88
2022/08/19 05:46:46;;;;;;;13.00;10.45;;;;;;;25.80;58.43;99874.00;5586050;31;33762;-89
2022/08/19 05:49:52;;;;;;;16.55;10.13;;;;;;;26.15;57.79;99878.81;5571686;32;34888;-90
2022/08/19 05:52:55;;;;;;;16.08;9.98;;;;;;;26.28;58.33;99880.03;5557639;32;32898;-89
2022/08/19 05:55:58;;;;;;;11.75;9.55;;;;;;;26.17;57.50;99884.06;5577057;31;34549;-89
2022/08/19 05:59:00;;;;;;;15.60;10.20;;;;;;;26.17;56.88;99887.66;5577073;31;33760;-86
2022/08/19 06:02:05;;;;;;;13.10;9.65;;;;;;;26.35;54.94;99886.41;5558579;32;33766;-89
2022/08/19 06:05:08;;;;;;;11.10;9.73;;;;;;;26.49;54.28;99880.06;5572611;31;34087;-89
2022/08/19 06:08:11;;;;;;;11.68;9.05;;;;;;;26.78;54.49;99880.97;5589905;31;34102;-89
2022/08/19 06:11:32;;;;;;;12.32;9.65;;;;;;;27.02;53.51;99880.78;5583634;31;35192;-88
2022/08/19 06:14:36;;;;;;;10.93;8.95;;;;;;;27.12;54.46;99880.44;5574587;31;33944;-89
2022/08/19 06:17:46;;;;;;;10.90;9.10;;;;;;;27.60;52.66;99878.91;5570661;32;34156;-93
2022/08/19 06:20:49;;;;;;;13.07;8.77;;;;;;;27.98;50.59;99883.88;5556010;32;32400;-92
2022/08/19 06:23:58;;;;;;;12.07;9.38;;;;;;;28.29;49.35;99873.53;5556219;32;32199;-90
2022/08/19 06:27:00;;;;;;;17.40;9.27;;;;;;;28.34;49.42;99882.78;5555835;32;32357;-89
2022/08/19 06:30:04;;;;;;;13.88;8.93;;;;;;;28.50;47.72;99888.88;5558799;31;33290;-89
2022/08/19 06:33:07;;;;;;;13.43;8.55;;;;;;;28.71;47.99;99881.59;5588317;31;34125;-89
2022/08/19 06:36:20;;;;;;;10.40;8.45;;;;;;;28.94;47.58;99872.16;5597766;31;33866;-89
2022/08/19 06:39:32;;;;;;;11.38;8.02;;;;;;;28.93;46.51;99863.16;5562295;32;35078;-89
2022/08/19 06:42:38;;;;;;;10.43;8.40;;;;;;;28.92;46.20;99861.47;5554537;32;33687;-89
2022/08/19 06:45:44;;;;;;;9.95;8.15;;;;;;;29.04;46.80;99858.94;5548504;32;33479;-89
2022/08/19 06:48:49;;;;;;;9.15;8.25;;;;;;;29.22;45.70;99863.75;5547131;32;33532;-89
2022/08/19 06:51:52;;;;;;;12.65;8.57;;;;;;;29.49;44.83;99871.91;5549431;32;34331;-89
2022/08/19 06:54:56;;;;;;;14.38;8.35;;;;;;;29.72;44.67;99865.13;5550176;32;34094;-89
2022/08/19 06:58:03;;;;;;;10.45;8.15;;;;;;;30.35;43.07;99863.59;5556081;32;34312;-89
2022/08/19 07:01:07;;;;;;;13.27;8.80;;;;;;;30.40;42.30;99862.91;5557021;32;34514;-89
2022/08/19 07:04:10;;;;;;;12.75;8.45;;;;;;;30.48;42.82;99862.63;5549780;32;34211;-89
2022/08/19 07:07:14;;;;;;;15.13;8.30;;;;;;;30.41;42.36;99861.84;5544395;32;32229;-89
2022/08/19 07:10:23;;;;;;;9.52;7.80;;;;;;;30.10;43.31;99869.84;5529363;32;34035;-88
2022/08/19 07:13:27;;;;;;;12.75;8.10;;;;;;;30.36;43.44;99875.34;5529506;32;34252;-89
2022/08/19 07:16:30;;;;;;;10.75;8.45;;;;;;;30.96;42.72;99873.28;5528551;32;32496;-89
2022/08/19 07:19:33;;;;;;;9.52;8.10;;;;;;;30.77;44.74;99881.44;5532306;32;34049;-89
2022/08/19 07:22:37;;;;;;;13.85;8.55;;;;;;;30.49;43.46;99888.13;5538712;32;33952;-89
2022/08/19 07:25:41;;;;;;;12.10;8.55;;;;;;;30.24;44.19;99895.22;5537185;32;33519;-89
2022/08/19 07:28:44;;;;;;;12.95;8.40;;;;;;;30.34;43.51;99894.75;5534304;32;32980;-89
2022/08/19 07:31:56;;;;;;;9.97;8.07;;;;;;;30.11;44.82;99884.31;5541549;32;34289;-89
2022/08/19 07:35:00;;;;;;;10.50;7.97;;;;;;;30.75;43.19;99886.28;5535513;32;35149;-89
2022/08/19 07:38:03;;;;;;;11.12;7.85;;;;;;;30.76;43.51;99883.31;5565412;31;34554;-89
2022/08/19 07:41:08;;;;;;;11.65;7.53;;;;;;;31.20;42.34;99885.28;5574300;31;32320;-90
2022/08/19 07:44:12;;;;;;;9.80;7.70;;;;;;;31.36;41.44;99877.56;5587759;31;34618;-90
2022/08/19 07:47:15;;;;;;;8.65;7.35;;;;;;;31.77;40.98;99878.78;5587854;31;33871;-90
2022/08/19 07:50:38;;;;;;;11.85;7.93;;;;;;;31.86;40.51;99882.94;5595175;31;33554;-90
2022/08/19 07:53:43;;;;;;;9.27;7.22;;;;;;;32.31;37.90;99874.53;5600361;31;33931;-90
2022/08/19 07:56:46;;;;;;;8.20;7.07;;;;;;;32.33;37.57;99873.22;5590829;31;34118;-90
2022/08/19 07:59:48;;;;;;;8.25;7.25;;;;;;;32.30;36.06;99883.81;5574925;31;31959;-90
2022/08/19 08:02:52;;;;;;;7.93;7.12;;;;;;;32.56;36.52;99873.56;5587655;31;33582;-90
2022/08/19 08:09:40;;;;;;;9.25;6.93;;;;;;;33.05;34.30;99866.03;5565555;32;32554;-88
2022/08/19 08:12:44;;;;;;;10.52;6.85;;;;;;;33.94;33.02;99866.00;5575539;31;33817;-88
2022/08/19 08:16:06;;;;;;;7.93;6.80;;;;;;;34.30;31.92;99857.66;5553996;32;32925;-89
2022/08/19 08:19:16;;;;;;;10.57;6.72;;;;;;;34.19;31.86;99859.34;5581562;31;35125;-89
2022/08/19 08:25:49;;;;;;;9.43;6.62;;;;;;;34.05;32.04;99878.09;5587399;31;34216;-90
2022/08/19 08:28:52;;;;;;;8.90;6.95;;;;;;;34.03;31.54;99879.37;5587488;31;34244;-89
2022/08/19 08:31:56;;;;;;;8.75;6.80;;;;;;;34.27;31.88;99885.66;5554613;32;33003;-90
2022/08/19 08:35:01;;;;;;;10.38;6.82;;;;;;;34.49;31.36;99871.19;5609437;26;34334;-87
2022/08/19 08:38:04;;;;;;;8.77;6.05;;;;;;;34.64;30.96;99859.62;5561644;32;34231;-90
2022/08/19 08:41:31;;;;;;;8.88;6.80;;;;;;;35.15;29.91;99867.88;5545108;32;33852;-88
2022/08/19 08:44:47;;;;;;;7.30;6.15;;;;;;;35.35;29.56;99863.75;5559543;32;33809;-91
2022/08/19 08:47:53;;;;;;;7.47;5.95;;;;;;;35.64;28.58;99865.53;5556487;32;33560;-88
2022/08/19 08:50:58;;;;;;;6.70;6.10;;;;;;;35.97;27.93;99872.00;5557021;32;34377;-89
2022/08/19 08:54:06;;;;;;;6.60;5.72;;;;;;;36.18;27.79;99861.22;5596793;26;33729;-88
2022/08/19 08:57:17;;;;;;;7.72;6.20;;;;;;;36.92;26.78;99853.31;5587346;31;34510;-89
2022/08/19 09:00:29;;;;;;;8.47;6.03;;;;;;;37.47;26.10;99837.34;5585655;31;33668;-89
2022/08/19 09:03:32;;;;;;;8.38;6.40;;;;;;;37.33;25.90;99834.25;5590344;31;34271;-88
2022/08/19 09:06:40;;;;;;;7.82;6.20;;;;;;;37.28;25.55;99833.37;5576832;31;33412;-88
2022/08/19 09:09:48;;;;;;;7.45;5.93;;;;;;;37.15;26.52;99840.22;5591351;31;33826;-89
2022/08/19 09:13:06;;;;;;;8.23;6.00;;;;;;;37.14;26.31;99836.62;5577540;31;33670;-89
2022/08/19 09:21:27;;;;;;;8.23;6.05;;;;;;;37.23;26.22;99842.47;5571674;32;35694;-89
2022/08/19 09:24:35;;;;;;;7.12;6.20;;;;;;;36.72;26.24;99840.16;5556510;32;33333;-90
2022/08/19 09:27:39;;;;;;;9.90;6.28;;;;;;;36.81;26.89;99835.84;5589843;26;34889;-90
2022/08/19 09:30:55;;;;;;;7.53;6.12;;;;;;;37.52;25.67;99832.91;5569726;32;34553;-89
2022/08/19 09:33:59;;;;;;;11.82;6.32;;;;;;;38.07;24.85;99821.53;5614781;26;34071;-90
2022/08/19 09:37:03;;;;;;;9.20;6.07;;;;;;;38.49;24.54;99828.75;5589996;31;33847;-90
2022/08/19 09:40:06;;;;;;;6.47;5.87;;;;;;;38.08;25.38;99820.41;5590674;31;33826;-89
2022/08/19 09:43:13;;;;;;;10.25;6.47;;;;;;;38.47;24.48;99819.91;5591021;31;34092;-90
2022/08/19 09:46:19;;;;;;;10.48;6.22;;;;;;;37.56;25.26;99809.16;5578655;31;32469;-89
2022/08/19 09:49:25;;;;;;;8.90;6.32;;;;;;;37.31;25.81;99797.72;5593398;31;33916;-90
2022/08/19 09:52:28;;;;;;;6.85;6.15;;;;;;;37.95;24.24;99802.37;5581782;31;32386;-90
2022/08/19 09:55:41;;;;;;;6.53;5.80;;;;;;;37.94;24.36;99795.19;5601858;26;32757;-89
2022/08/19 09:58:44;;;;;;;6.15;5.55;;;;;;;38.37;24.11;99792.19;5577512;31;32562;-90
2022/08/19 10:01:47;;;;;;;7.62;6.00;;;;;;;39.33;23.01;99788.72;5590980;31;33816;-90
2022/08/19 10:08:12;;;;;;;8.35;5.70;;;;;;;40.07;21.82;99780.84;5601517;31;33972;-90
2022/08/19 10:11:17;;;;;;;10.00;5.82;;;;;;;40.38;21.25;99773.13;5604212;31;35409;-90
2022/08/19 10:14:38;;;;;;;6.18;5.57;;;;;;;40.62;21.03;99779.84;5590189;31;34244;-90
2022/08/19 10:17:41;;;;;;;5.97;5.50;;;;;;;39.44;22.43;99774.78;5590822;31;34099;-90
2022/08/19 10:21:26;;;;;;;8.55;6.78;;;;;;;39.25;22.38;99780.97;5604696;31;34741;-90
2022/08/19 10:24:29;;;;;;;10.23;6.10;;;;;;;39.79;22.81;99784.06;5629175;26;35073;-90
2022/08/19 10:27:31;;;;;;;8.07;5.80;;;;;;;39.16;22.73;99771.59;5574527;32;34097;-90
2022/08/19 10:30:39;;;;;;;7.37;5.80;;;;;;;39.34;23.07;99759.88;5569667;32;33943;-90
2022/08/19 10:33:41;;;;;;;8.45;5.55;;;;;;;39.33;22.88;99766.53;5570133;32;34257;-90
2022/08/19 10:36:57;;;;;;;10.45;5.72;;;;;;;39.79;22.38;99766.56;5555651;32;32414;-90
2022/08/19 10:40:07;;;;;;;8.77;5.87;;;;;;;40.28;21.88;99768.44;5555727;32;32968;-90
2022/08/19 10:43:10;;;;;;;6.85;5.60;;;;;;;40.83;21.00;99761.03;5619126;26;33925;-89
2022/08/19 10:46:15;;;;;;;7.15;5.60;;;;;;;40.98;20.57;99764.75;5589152;31;34662;-90
2022/08/19 10:49:19;;;;;;;8.35;5.68;;;;;;;42.10;19.40;99765.47;5588913;31;35229;-90
2022/08/19 10:52:33;;;;;;;7.72;5.90;;;;;;;41.69;19.71;99756.66;5575493;31;32465;-90
2022/08/19 10:59:02;;;;;;;7.90;5.80;;;;;;;39.69;22.07;99759.97;5572993;31;32823;-91
2022/08/19 11:02:09;;;;;;;7.82;6.03;;;;;;;39.53;22.57;99766.72;5575902;32;34711;-90
2022/08/19 11:05:14;;;;;;;10.38;6.05;;;;;;;38.75;22.45;99759.47;5576427;31;34095;-91
2022/08/19 11:08:17;;;;;;;9.05;6.15;;;;;;;38.71;22.64;99752.03;5581432;31;34187;-90
2022/08/19 11:11:26;;;;;;;7.93;5.87;;;;;;;38.53;23.42;99759.81;5581071;31;32637;-90
2022/08/19 11:25:59;;;;;;;6.87;5.47;;;;;;;39.20;22.24;99756.87;4109052;29;20079;-91
2022/08/19 11:29:04;;;;;;;11.10;5.75;;;;;;;38.66;23.00;99758.41;5564363;32;34951;-90
2022/08/19 11:32:09;;;;;;;10.88;5.70;;;;;;;37.94;23.59;99751.72;5551344;32;33823;-89
2022/08/19 11:35:12;;;;;;;5.97;5.47;;;;;;;38.37;23.34;99751.50;5550295;32;36014;-90
2022/08/19 11:38:18;;;;;;;7.18;6.47;;;;;;;38.35;23.37;99748.16;5549607;32;33868;-90
2022/08/19 11:41:23;;;;;;;8.75;6.80;;;;;;;38.65;22.61;99745.66;5550426;32;33638;-90
2022/08/19 11:44:25;;;;;;;12.18;6.28;;;;;;;37.94;23.62;99750.91;5550842;32;33453;-89
2022/08/19 11:47:30;;;;;;;9.68;5.87;;;;;;;37.87;23.45;99756.69;5551237;32;33962;-89
2022/08/19 11:50:32;;;;;;;9.77;6.72;;;;;;;38.06;23.28;99751.50;5536026;32;32653;-90
2022/08/19 11:53:37;;;;;;;10.05;6.75;;;;;;;38.02;23.57;99742.87;5535543;32;32456;-90
2022/08/19 11:56:40;;;;;;;11.45;6.07;;;;;;;38.53;22.84;99737.66;5545799;32;33171;-89
2022/08/19 11:59:49;;;;;;;6.43;5.62;;;;;;;38.11;23.12;99742.37;5549186;32;34230;-89
2022/08/19 12:02:51;;;;;;;9.83;6.27;;;;;;;38.23;22.90;99731.00;5549138;32;34478;-89
2022/08/19 12:05:54;;;;;;;10.77;6.57;;;;;;;38.24;23.02;99727.97;5551507;32;33605;-90
2022/08/19 12:09:08;;;;;;;16.92;6.35;;;;;;;37.85;23.47;99718.22;5579821;26;35056;-91
2022/08/19 12:12:11;;;;;;;12.48;6.62;;;;;;;37.88;23.54;99714.94;5558675;32;34594;-91
2022/08/19 12:15:14;;;;;;;8.95;6.53;;;;;;;38.71;22.79;99721.53;5545019;32;33878;-91
2022/08/19 12:18:16;;;;;;;10.70;9.02;;;;;;;38.48;22.60;99716.31;5535417;32;33193;-90
2022/08/19 12:21:22;;;;;;;14.05;8.45;;;;;;;37.92;24.31;99711.59;5549414;32;33790;-90
2022/08/19 12:24:25;;;;;;;11.10;8.43;;;;;;;38.39;22.95;99726.28;5550476;32;33194;-90
2022/08/19 12:27:28;;;;;;;11.52;6.10;;;;;;;38.64;22.22;99714.34;5552083;32;34678;-90
2022/08/19 12:30:42;;;;;;;11.80;6.53;;;;;;;38.29;22.32;99716.88;5549138;32;33726;-91
2022/08/19 12:33:46;;;;;;;9.23;7.00;;;;;;;38.01;23.02;99710.75;5547931;32;32738;-90
2022/08/19 12:36:49;;;;;;;12.25;7.05;;;;;;;37.82;23.32;99727.09;5549160;32;34060;-90
2022/08/19 12:39:52;;;;;;;10.23;9.10;;;;;;;38.01;23.35;99721.03;5537741;32;34159;-90
2022/08/19 12:42:55;;;;;;;16.58;13.07;;;;;;;38.27;23.27;99719.06;5540703;32;33244;-90
2022/08/19 12:45:58;;;;;;;18.58;10.60;;;;;;;38.32;22.83;99709.13;5544038;32;32432;-91
2022/08/19 12:49:03;;;;;;;17.67;10.05;;;;;;;37.65;22.95;99707.16;5553347;32;34417;-90
2022/08/19 12:52:27;;;;;;;12.32;9.60;;;;;;;37.69;23.60;99706.31;5551077;32;35174;-94
2022/08/19 12:55:31;;;;;;;19.75;10.27;;;;;;;37.36;24.06;99702.91;5551156;32;34499;-90
2022/08/19 12:58:34;;;;;;;15.43;10.50;;;;;;;36.77;24.44;99696.56;5550717;32;34552;-91
2022/08/19 13:01:37;;;;;;;13.10;10.38;;;;;;;37.00;24.39;99684.22;5549962;32;33604;-91
2022/08/19 13:04:40;;;;;;;17.30;10.90;;;;;;;37.21;23.61;99687.09;5551120;32;35213;-91
2022/08/19 13:07:44;;;;;;;16.87;11.80;;;;;;;37.32;23.57;99685.19;5550176;32;33515;-91
2022/08/19 13:10:46;;;;;;;17.30;11.55;;;;;;;37.71;23.76;99679.19;5549808;32;32764;-91
2022/08/19 13:13:51;;;;;;;14.63;12.25;;;;;;;37.69;22.65;99691.62;5550402;32;32932;-91
2022/08/19 13:16:53;;;;;;;14.27;12.70;;;;;;;37.77;22.90;99691.13;5551746;32;34257;-91
2022/08/19 13:19:56;;;;;;;14.75;12.52;;;;;;;37.66;22.62;99689.44;5552836;32;34535;-91
2022/08/19 13:22:59;;;;;;;14.32;12.82;;;;;;;37.43;23.44;99691.56;5551667;32;34602;-91
2022/08/19 13:26:04;;;;;;;18.17;14.05;;;;;;;37.42;23.07;99690.75;5551778;32;33800;-90
2022/08/19 13:35:58;;;;;;;15.82;12.70;;;;;;;37.21;23.69;99665.81;5550372;32;33855;-90
2022/08/19 13:39:01;;;;;;;15.00;12.18;;;;;;;37.01;23.91;99674.00;5538611;32;32579;-91
2022/08/19 13:42:05;;;;;;;16.25;12.32;;;;;;;36.52;24.97;99675.94;5572172;26;32352;-88
2022/08/19 13:45:09;;;;;;;19.00;11.93;;;;;;;36.46;24.58;99666.81;5560856;32;34435;-88
2022/08/19 13:48:12;;;;;;;14.70;11.20;;;;;;;37.00;24.44;99667.63;5582938;32;35062;-88
2022/08/19 13:51:16;;;;;;;8.57;7.18;;;;;;;37.00;23.58;99670.41;5569244;32;32301;-88
2022/08/19 13:54:19;;;;;;;16.08;6.40;;;;;;;36.61;24.53;99666.09;5561150;32;32996;-88
2022/08/19 13:57:22;;;;;;;14.00;6.00;;;;;;;36.70;24.39;99658.16;5560131;32;33590;-88
2022/08/19 14:00:26;;;;;;;11.38;5.60;;;;;;;37.14;23.46;99647.84;5567686;32;33921;-89
2022/08/19 14:03:31;;;;;;;12.75;5.40;;;;;;;37.36;23.37;99642.06;5550686;32;33813;-89
2022/08/19 14:06:34;;;;;;;12.20;5.50;;;;;;;37.59;22.81;99640.75;5549916;32;32545;-89
2022/08/19 14:09:37;;;;;;;13.13;6.95;;;;;;;37.70;23.19;99640.75;5588021;26;34628;-89
2022/08/19 14:12:39;;;;;;;11.77;6.50;;;;;;;37.59;23.73;99651.81;5571420;32;34357;-89
2022/08/19 14:15:43;;;;;;;30.70;6.80;;;;;;;37.04;24.84;99677.06;5570441;32;33776;-89
2022/08/19 14:18:45;;;;;;;40.97;6.60;;;;;;;35.64;29.42;99676.06;5570348;32;34487;-89
2022/08/19 14:21:48;;;;;;;63.53;7.50;;;;;;;35.47;30.63;99673.41;5557897;32;32738;-89
2022/08/19 14:24:51;;;;;;;39.00;6.55;;;;;;;34.89;31.62;99690.34;5618084;26;33954;-89
2022/08/19 14:27:55;;;;;;;31.80;6.50;;;;;;;33.69;34.04;99685.69;5575867;31;33483;-89
2022/08/19 14:31:01;;;;;;;28.52;5.72;;;;;;;33.94;33.88;99689.97;5595929;31;35322;-89
2022/08/19 14:34:04;;;;;;;35.45;6.40;;;;;;;33.53;34.62;99684.56;5616837;26;34253;-91
2022/08/19 14:37:09;;;;;;;21.30;6.05;;;;;;;33.39;34.78;99684.03;5569554;32;33590;-90
2022/08/19 14:40:21;;;;;;;19.08;5.43;;;;;;;32.93;35.14;99697.63;5581288;31;34990;-89
2022/08/19 14:43:24;;;;;;;24.73;5.70;;;;;;;33.04;35.26;99690.47;5581571;26;32476;-89
2022/08/19 14:46:28;;;;;;;15.40;4.95;;;;;;;32.72;35.87;99688.94;5577255;31;31734;-90
2022/08/19 14:49:31;;;;;;;23.15;5.00;;;;;;;31.94;37.04;99683.50;5590081;31;34130;-90
2022/08/19 14:52:47;;;;;;;22.23;5.97;;;;;;;32.09;36.98;99685.78;5589188;31;33954;-90
2022/08/19 14:55:50;;;;;;;43.90;6.05;;;;;;;32.29;36.86;99685.47;5589122;31;34762;-90
2022/08/19 14:58:58;;;;;;;26.80;5.37;;;;;;;31.65;37.70;99699.72;5575552;31;33173;-91
